sensor_id;sensor_type;location;lat;lon;timestamp;P1;durP1;ratioP1;P2;durP2;ratioP2
75626;SDS011;67372;49.404;11.034;2023-08-08T00:00:10;6.25;;;2.72;;
75626;SDS011;67372;49.404;11.034;2023-08-08T00:02:37;4.93;;;2.70;;
75626;SDS011;67372;49.404;11.034;2023-08-08T00:05:04;4.15;;;2.42;;
75626;SDS011;67372;49.404;11.034;2023-08-08T00:07:30;4.00;;;2.75;;
75626;SDS011;67372;49.404;11.034;2023-08-08T00:09:56;4.20;;;2.78;;
75626;SDS011;67372;49.404;11.034;2023-08-08T00:12:23;2.80;;;2.25;;
75626;SDS011;67372;49.404;11.034;2023-08-08T00:14:49;4.53;;;2.40;;
75626;SDS011;67372;49.404;11.034;2023-08-08T00:17:16;3.67;;;2.38;;
75626;SDS011;67372;49.404;11.034;2023-08-08T00:19:42;3.00;;;1.88;;
75626;SDS011;67372;49.404;11.034;2023-08-08T00:22:09;3.53;;;2.20;;
75626;SDS011;67372;49.404;11.034;2023-08-08T00:24:35;10.25;;;2.65;;
75626;SDS011;67372;49.404;11.034;2023-08-08T00:27:01;2.95;;;2.20;;
75626;SDS011;67372;49.404;11.034;2023-08-08T00:29:28;4.47;;;2.42;;
75626;SDS011;67372;49.404;11.034;2023-08-08T00:31:54;2.95;;;2.20;;
75626;SDS011;67372;49.404;11.034;2023-08-08T00:34:21;3.03;;;2.03;;
75626;SDS011;67372;49.404;11.034;2023-08-08T00:36:48;3.72;;;2.10;;
75626;SDS011;67372;49.404;11.034;2023-08-08T00:39:14;5.13;;;2.15;;
75626;SDS011;67372;49.404;11.034;2023-08-08T00:41:40;3.13;;;1.90;;
75626;SDS011;67372;49.404;11.034;2023-08-08T00:44:07;5.03;;;2.33;;
75626;SDS011;67372;49.404;11.034;2023-08-08T00:46:33;2.60;;;1.92;;
75626;SDS011;67372;49.404;11.034;2023-08-08T00:49:00;3.47;;;1.95;;
75626;SDS011;67372;49.404;11.034;2023-08-08T00:51:27;2.45;;;1.80;;
75626;SDS011;67372;49.404;11.034;2023-08-08T00:53:54;3.30;;;2.40;;
75626;SDS011;67372;49.404;11.034;2023-08-08T00:56:20;3.45;;;2.00;;
75626;SDS011;67372;49.404;11.034;2023-08-08T00:58:47;3.00;;;1.90;;
75626;SDS011;67372;49.404;11.034;2023-08-08T01:01:14;3.08;;;1.77;;
75626;SDS011;67372;49.404;11.034;2023-08-08T01:03:40;3.72;;;1.80;;
75626;SDS011;67372;49.404;11.034;2023-08-08T01:06:21;2.75;;;1.88;;
75626;SDS011;67372;49.404;11.034;2023-08-08T01:08:58;2.70;;;1.80;;
75626;SDS011;67372;49.404;11.034;2023-08-08T01:11:31;3.10;;;1.67;;
75626;SDS011;67372;49.404;11.034;2023-08-08T01:14:00;3.75;;;1.98;;
75626;SDS011;67372;49.404;11.034;2023-08-08T01:16:28;2.88;;;1.88;;
75626;SDS011;67372;49.404;11.034;2023-08-08T01:18:55;3.13;;;1.48;;
75626;SDS011;67372;49.404;11.034;2023-08-08T01:21:23;2.88;;;1.63;;
75626;SDS011;67372;49.404;11.034;2023-08-08T01:23:52;4.15;;;1.98;;
75626;SDS011;67372;49.404;11.034;2023-08-08T01:26:22;2.58;;;1.80;;
75626;SDS011;67372;49.404;11.034;2023-08-08T01:28:52;2.90;;;1.70;;
75626;SDS011;67372;49.404;11.034;2023-08-08T01:31:19;2.13;;;1.50;;
75626;SDS011;67372;49.404;11.034;2023-08-08T01:33:46;2.15;;;1.45;;
75626;SDS011;67372;49.404;11.034;2023-08-08T01:36:15;2.38;;;1.60;;
75626;SDS011;67372;49.404;11.034;2023-08-08T01:38:48;3.15;;;1.77;;
75626;SDS011;67372;49.404;11.034;2023-08-08T01:41:19;2.17;;;1.75;;
75626;SDS011;67372;49.404;11.034;2023-08-08T01:43:47;2.38;;;1.80;;
75626;SDS011;67372;49.404;11.034;2023-08-08T01:46:14;2.85;;;1.95;;
75626;SDS011;67372;49.404;11.034;2023-08-08T01:48:44;3.28;;;1.85;;
75626;SDS011;67372;49.404;11.034;2023-08-08T01:51:11;4.13;;;1.77;;
75626;SDS011;67372;49.404;11.034;2023-08-08T01:53:37;2.28;;;1.63;;
75626;SDS011;67372;49.404;11.034;2023-08-08T01:56:03;2.50;;;1.70;;
75626;SDS011;67372;49.404;11.034;2023-08-08T01:58:30;2.30;;;1.60;;
75626;SDS011;67372;49.404;11.034;2023-08-08T02:00:56;3.88;;;1.98;;
75626;SDS011;67372;49.404;11.034;2023-08-08T02:03:23;2.45;;;1.70;;
75626;SDS011;67372;49.404;11.034;2023-08-08T02:05:50;2.60;;;1.50;;
75626;SDS011;67372;49.404;11.034;2023-08-08T02:08:16;2.03;;;1.50;;
75626;SDS011;67372;49.404;11.034;2023-08-08T02:10:43;4.97;;;1.40;;
75626;SDS011;67372;49.404;11.034;2023-08-08T02:13:09;1.88;;;1.55;;
75626;SDS011;67372;49.404;11.034;2023-08-08T02:15:35;2.38;;;1.40;;
75626;SDS011;67372;49.404;11.034;2023-08-08T02:18:02;2.08;;;1.45;;
75626;SDS011;67372;49.404;11.034;2023-08-08T02:20:28;2.72;;;1.60;;
75626;SDS011;67372;49.404;11.034;2023-08-08T02:22:55;3.05;;;1.42;;
75626;SDS011;67372;49.404;11.034;2023-08-08T02:25:21;1.30;;;1.20;;
75626;SDS011;67372;49.404;11.034;2023-08-08T02:27:48;2.03;;;1.67;;
75626;SDS011;67372;49.404;11.034;2023-08-08T02:30:14;1.88;;;1.30;;
75626;SDS011;67372;49.404;11.034;2023-08-08T02:32:41;2.13;;;1.30;;
75626;SDS011;67372;49.404;11.034;2023-08-08T02:35:07;2.30;;;1.60;;
75626;SDS011;67372;49.404;11.034;2023-08-08T02:37:34;2.22;;;1.10;;
75626;SDS011;67372;49.404;11.034;2023-08-08T02:40:00;2.22;;;1.52;;
75626;SDS011;67372;49.404;11.034;2023-08-08T02:42:27;2.22;;;1.52;;
75626;SDS011;67372;49.404;11.034;2023-08-08T02:44:53;2.55;;;1.30;;
75626;SDS011;67372;49.404;11.034;2023-08-08T02:47:20;1.85;;;1.35;;
75626;SDS011;67372;49.404;11.034;2023-08-08T02:49:46;1.98;;;1.40;;
75626;SDS011;67372;49.404;11.034;2023-08-08T02:52:13;2.35;;;1.40;;
75626;SDS011;67372;49.404;11.034;2023-08-08T02:54:39;2.08;;;1.38;;
75626;SDS011;67372;49.404;11.034;2023-08-08T02:57:06;1.95;;;1.35;;
75626;SDS011;67372;49.404;11.034;2023-08-08T02:59:32;2.80;;;1.55;;
75626;SDS011;67372;49.404;11.034;2023-08-08T03:01:59;2.63;;;1.38;;
75626;SDS011;67372;49.404;11.034;2023-08-08T03:04:27;2.60;;;1.35;;
75626;SDS011;67372;49.404;11.034;2023-08-08T03:06:53;3.13;;;1.50;;
75626;SDS011;67372;49.404;11.034;2023-08-08T03:09:19;2.88;;;1.60;;
75626;SDS011;67372;49.404;11.034;2023-08-08T03:11:46;2.72;;;1.30;;
75626;SDS011;67372;49.404;11.034;2023-08-08T03:14:12;1.58;;;1.25;;
75626;SDS011;67372;49.404;11.034;2023-08-08T03:16:39;2.28;;;1.30;;
75626;SDS011;67372;49.404;11.034;2023-08-08T03:19:06;1.88;;;1.40;;
75626;SDS011;67372;49.404;11.034;2023-08-08T03:21:32;2.10;;;1.60;;
75626;SDS011;67372;49.404;11.034;2023-08-08T03:23:58;2.05;;;1.33;;
75626;SDS011;67372;49.404;11.034;2023-08-08T03:26:25;4.15;;;1.48;;
75626;SDS011;67372;49.404;11.034;2023-08-08T03:28:51;2.30;;;1.40;;
75626;SDS011;67372;49.404;11.034;2023-08-08T03:31:18;2.28;;;1.30;;
75626;SDS011;67372;49.404;11.034;2023-08-08T03:33:44;3.35;;;1.50;;
75626;SDS011;67372;49.404;11.034;2023-08-08T03:36:10;3.60;;;1.40;;
75626;SDS011;67372;49.404;11.034;2023-08-08T03:38:37;2.50;;;1.38;;
75626;SDS011;67372;49.404;11.034;2023-08-08T03:41:03;2.42;;;1.63;;
75626;SDS011;67372;49.404;11.034;2023-08-08T03:43:30;1.75;;;1.35;;
75626;SDS011;67372;49.404;11.034;2023-08-08T03:45:56;1.85;;;1.42;;
75626;SDS011;67372;49.404;11.034;2023-08-08T03:48:23;1.27;;;1.17;;
75626;SDS011;67372;49.404;11.034;2023-08-08T03:50:49;2.00;;;1.38;;
75626;SDS011;67372;49.404;11.034;2023-08-08T03:53:16;2.72;;;1.73;;
75626;SDS011;67372;49.404;11.034;2023-08-08T03:55:42;2.63;;;1.60;;
75626;SDS011;67372;49.404;11.034;2023-08-08T03:58:08;2.50;;;1.88;;
75626;SDS011;67372;49.404;11.034;2023-08-08T04:00:35;3.13;;;1.50;;
75626;SDS011;67372;49.404;11.034;2023-08-08T04:03:01;2.25;;;1.50;;
75626;SDS011;67372;49.404;11.034;2023-08-08T04:05:28;3.53;;;1.90;;
75626;SDS011;67372;49.404;11.034;2023-08-08T04:07:55;3.22;;;1.88;;
75626;SDS011;67372;49.404;11.034;2023-08-08T04:10:21;2.50;;;1.80;;
75626;SDS011;67372;49.404;11.034;2023-08-08T04:12:47;2.20;;;1.83;;
75626;SDS011;67372;49.404;11.034;2023-08-08T04:15:14;2.88;;;1.80;;
75626;SDS011;67372;49.404;11.034;2023-08-08T04:17:40;2.97;;;1.98;;
75626;SDS011;67372;49.404;11.034;2023-08-08T04:20:07;2.92;;;1.60;;
75626;SDS011;67372;49.404;11.034;2023-08-08T04:22:33;3.78;;;2.20;;
75626;SDS011;67372;49.404;11.034;2023-08-08T04:25:00;3.83;;;1.95;;
75626;SDS011;67372;49.404;11.034;2023-08-08T04:27:26;2.05;;;1.70;;
75626;SDS011;67372;49.404;11.034;2023-08-08T04:29:53;2.95;;;2.00;;
75626;SDS011;67372;49.404;11.034;2023-08-08T04:32:19;3.15;;;1.90;;
75626;SDS011;67372;49.404;11.034;2023-08-08T04:34:45;3.25;;;1.98;;
75626;SDS011;67372;49.404;11.034;2023-08-08T04:37:12;4.72;;;2.58;;
75626;SDS011;67372;49.404;11.034;2023-08-08T04:39:38;3.00;;;1.83;;
75626;SDS011;67372;49.404;11.034;2023-08-08T04:42:04;5.03;;;1.92;;
75626;SDS011;67372;49.404;11.034;2023-08-08T04:44:31;5.63;;;2.00;;
75626;SDS011;67372;49.404;11.034;2023-08-08T04:46:57;4.70;;;2.00;;
75626;SDS011;67372;49.404;11.034;2023-08-08T04:49:24;3.17;;;2.25;;
75626;SDS011;67372;49.404;11.034;2023-08-08T04:51:50;3.72;;;1.92;;
75626;SDS011;67372;49.404;11.034;2023-08-08T04:54:16;2.92;;;1.88;;
75626;SDS011;67372;49.404;11.034;2023-08-08T04:56:43;4.45;;;1.80;;
75626;SDS011;67372;49.404;11.034;2023-08-08T04:59:09;2.58;;;1.80;;
75626;SDS011;67372;49.404;11.034;2023-08-08T05:01:35;3.75;;;2.00;;
75626;SDS011;67372;49.404;11.034;2023-08-08T05:04:02;2.92;;;1.80;;
75626;SDS011;67372;49.404;11.034;2023-08-08T05:06:28;3.00;;;2.10;;
75626;SDS011;67372;49.404;11.034;2023-08-08T05:08:55;2.33;;;1.58;;
75626;SDS011;67372;49.404;11.034;2023-08-08T05:11:21;3.67;;;1.70;;
75626;SDS011;67372;49.404;11.034;2023-08-08T05:13:48;3.40;;;1.83;;
75626;SDS011;67372;49.404;11.034;2023-08-08T05:16:14;3.10;;;2.10;;
75626;SDS011;67372;49.404;11.034;2023-08-08T05:18:41;4.72;;;2.05;;
75626;SDS011;67372;49.404;11.034;2023-08-08T05:21:07;2.88;;;2.17;;
75626;SDS011;67372;49.404;11.034;2023-08-08T05:23:34;5.22;;;2.15;;
75626;SDS011;67372;49.404;11.034;2023-08-08T05:26:00;2.08;;;1.70;;
75626;SDS011;67372;49.404;11.034;2023-08-08T05:28:26;2.58;;;1.80;;
75626;SDS011;67372;49.404;11.034;2023-08-08T05:30:53;4.13;;;1.90;;
75626;SDS011;67372;49.404;11.034;2023-08-08T05:33:19;2.70;;;2.13;;
75626;SDS011;67372;49.404;11.034;2023-08-08T05:35:46;2.42;;;1.73;;
75626;SDS011;67372;49.404;11.034;2023-08-08T05:38:12;2.58;;;1.60;;
75626;SDS011;67372;49.404;11.034;2023-08-08T05:40:38;2.25;;;1.63;;
75626;SDS011;67372;49.404;11.034;2023-08-08T05:43:05;1.65;;;1.48;;
75626;SDS011;67372;49.404;11.034;2023-08-08T05:45:31;2.53;;;1.65;;
75626;SDS011;67372;49.404;11.034;2023-08-08T05:47:58;1.90;;;1.48;;
75626;SDS011;67372;49.404;11.034;2023-08-08T05:50:24;5.70;;;1.92;;
75626;SDS011;67372;49.404;11.034;2023-08-08T05:52:50;2.03;;;1.40;;
75626;SDS011;67372;49.404;11.034;2023-08-08T05:55:17;2.60;;;1.67;;
75626;SDS011;67372;49.404;11.034;2023-08-08T05:57:43;1.67;;;1.30;;
75626;SDS011;67372;49.404;11.034;2023-08-08T06:00:10;2.78;;;1.60;;
75626;SDS011;67372;49.404;11.034;2023-08-08T06:02:37;2.40;;;1.63;;
75626;SDS011;67372;49.404;11.034;2023-08-08T06:05:04;2.67;;;1.50;;
75626;SDS011;67372;49.404;11.034;2023-08-08T06:07:31;3.00;;;1.60;;
75626;SDS011;67372;49.404;11.034;2023-08-08T06:09:57;3.30;;;1.50;;
75626;SDS011;67372;49.404;11.034;2023-08-08T06:12:24;5.10;;;1.60;;
75626;SDS011;67372;49.404;11.034;2023-08-08T06:14:50;2.22;;;1.63;;
75626;SDS011;67372;49.404;11.034;2023-08-08T06:17:16;2.45;;;1.38;;
75626;SDS011;67372;49.404;11.034;2023-08-08T06:19:43;2.15;;;1.40;;
75626;SDS011;67372;49.404;11.034;2023-08-08T06:22:09;2.83;;;1.60;;
75626;SDS011;67372;49.404;11.034;2023-08-08T06:24:35;2.55;;;1.70;;
75626;SDS011;67372;49.404;11.034;2023-08-08T06:27:02;3.20;;;1.95;;
75626;SDS011;67372;49.404;11.034;2023-08-08T06:29:29;3.28;;;1.40;;
75626;SDS011;67372;49.404;11.034;2023-08-08T06:31:55;1.80;;;1.30;;
75626;SDS011;67372;49.404;11.034;2023-08-08T06:34:21;2.33;;;1.50;;
75626;SDS011;67372;49.404;11.034;2023-08-08T06:36:48;2.50;;;1.50;;
75626;SDS011;67372;49.404;11.034;2023-08-08T06:39:14;3.47;;;1.63;;
75626;SDS011;67372;49.404;11.034;2023-08-08T06:41:41;3.17;;;1.50;;
75626;SDS011;67372;49.404;11.034;2023-08-08T06:44:07;2.00;;;1.40;;
75626;SDS011;67372;49.404;11.034;2023-08-08T06:46:34;2.58;;;1.40;;
75626;SDS011;67372;49.404;11.034;2023-08-08T06:49:00;2.05;;;1.30;;
75626;SDS011;67372;49.404;11.034;2023-08-08T06:51:26;2.28;;;1.40;;
75626;SDS011;67372;49.404;11.034;2023-08-08T06:53:53;3.20;;;1.30;;
75626;SDS011;67372;49.404;11.034;2023-08-08T06:56:19;2.90;;;1.88;;
75626;SDS011;67372;49.404;11.034;2023-08-08T06:58:46;2.10;;;1.48;;
75626;SDS011;67372;49.404;11.034;2023-08-08T07:01:12;2.63;;;1.30;;
75626;SDS011;67372;49.404;11.034;2023-08-08T07:03:39;1.95;;;1.40;;
75626;SDS011;67372;49.404;11.034;2023-08-08T07:06:05;2.25;;;1.30;;
75626;SDS011;67372;49.404;11.034;2023-08-08T07:08:32;2.00;;;1.70;;
75626;SDS011;67372;49.404;11.034;2023-08-08T07:10:58;1.80;;;1.30;;
75626;SDS011;67372;49.404;11.034;2023-08-08T07:13:25;1.55;;;1.35;;
75626;SDS011;67372;49.404;11.034;2023-08-08T07:15:51;2.40;;;1.50;;
75626;SDS011;67372;49.404;11.034;2023-08-08T07:18:17;1.63;;;1.23;;
75626;SDS011;67372;49.404;11.034;2023-08-08T07:20:44;3.22;;;1.50;;
75626;SDS011;67372;49.404;11.034;2023-08-08T07:23:10;4.50;;;1.30;;
75626;SDS011;67372;49.404;11.034;2023-08-08T07:25:37;1.65;;;1.10;;
75626;SDS011;67372;49.404;11.034;2023-08-08T07:28:03;3.45;;;1.50;;
75626;SDS011;67372;49.404;11.034;2023-08-08T07:30:30;1.80;;;1.20;;
75626;SDS011;67372;49.404;11.034;2023-08-08T07:32:56;1.98;;;1.45;;
75626;SDS011;67372;49.404;11.034;2023-08-08T07:35:23;2.40;;;1.40;;
75626;SDS011;67372;49.404;11.034;2023-08-08T07:37:49;2.00;;;1.40;;
75626;SDS011;67372;49.404;11.034;2023-08-08T07:40:16;2.70;;;1.40;;
75626;SDS011;67372;49.404;11.034;2023-08-08T07:42:44;2.50;;;1.10;;
75626;SDS011;67372;49.404;11.034;2023-08-08T07:45:11;3.28;;;1.40;;
75626;SDS011;67372;49.404;11.034;2023-08-08T07:47:37;2.17;;;1.10;;
75626;SDS011;67372;49.404;11.034;2023-08-08T07:50:04;2.75;;;1.40;;
75626;SDS011;67372;49.404;11.034;2023-08-08T07:52:31;2.00;;;1.33;;
75626;SDS011;67372;49.404;11.034;2023-08-08T07:54:57;4.60;;;1.67;;
75626;SDS011;67372;49.404;11.034;2023-08-08T07:57:24;2.03;;;1.13;;
75626;SDS011;67372;49.404;11.034;2023-08-08T07:59:52;2.13;;;1.30;;
75626;SDS011;67372;49.404;11.034;2023-08-08T08:02:18;2.00;;;1.33;;
75626;SDS011;67372;49.404;11.034;2023-08-08T08:04:45;3.05;;;1.10;;
75626;SDS011;67372;49.404;11.034;2023-08-08T08:07:11;1.70;;;1.17;;
75626;SDS011;67372;49.404;11.034;2023-08-08T08:09:38;1.73;;;1.20;;
75626;SDS011;67372;49.404;11.034;2023-08-08T08:12:04;2.28;;;1.30;;
75626;SDS011;67372;49.404;11.034;2023-08-08T08:14:31;1.77;;;0.90;;
75626;SDS011;67372;49.404;11.034;2023-08-08T08:16:57;1.52;;;1.10;;
75626;SDS011;67372;49.404;11.034;2023-08-08T08:19:24;1.73;;;1.20;;
75626;SDS011;67372;49.404;11.034;2023-08-08T08:21:50;1.70;;;1.05;;
75626;SDS011;67372;49.404;11.034;2023-08-08T08:24:16;1.85;;;1.35;;
75626;SDS011;67372;49.404;11.034;2023-08-08T08:26:44;3.20;;;1.10;;
75626;SDS011;67372;49.404;11.034;2023-08-08T08:29:10;2.33;;;1.10;;
75626;SDS011;67372;49.404;11.034;2023-08-08T08:31:37;1.52;;;1.13;;
75626;SDS011;67372;49.404;11.034;2023-08-08T08:34:03;3.05;;;1.10;;
75626;SDS011;67372;49.404;11.034;2023-08-08T08:36:30;2.40;;;1.42;;
75626;SDS011;67372;49.404;11.034;2023-08-08T08:38:56;2.95;;;1.40;;
75626;SDS011;67372;49.404;11.034;2023-08-08T08:41:25;1.23;;;0.90;;
75626;SDS011;67372;49.404;11.034;2023-08-08T08:43:53;2.05;;;0.98;;
75626;SDS011;67372;49.404;11.034;2023-08-08T08:48:49;1.40;;;0.90;;
75626;SDS011;67372;49.404;11.034;2023-08-08T08:51:16;2.83;;;1.00;;
75626;SDS011;67372;49.404;11.034;2023-08-08T08:53:43;2.42;;;0.90;;
75626;SDS011;67372;49.404;11.034;2023-08-08T08:56:09;2.35;;;1.00;;
75626;SDS011;67372;49.404;11.034;2023-08-08T08:58:35;1.38;;;1.00;;
75626;SDS011;67372;49.404;11.034;2023-08-08T09:01:02;2.25;;;0.90;;
75626;SDS011;67372;49.404;11.034;2023-08-08T09:03:29;1.10;;;1.00;;
75626;SDS011;67372;49.404;11.034;2023-08-08T09:05:55;1.30;;;0.90;;
75626;SDS011;67372;49.404;11.034;2023-08-08T09:08:24;1.23;;;0.90;;
75626;SDS011;67372;49.404;11.034;2023-08-08T09:10:50;1.23;;;0.70;;
75626;SDS011;67372;49.404;11.034;2023-08-08T09:13:17;2.63;;;0.93;;
75626;SDS011;67372;49.404;11.034;2023-08-08T09:15:46;1.60;;;1.00;;
75626;SDS011;67372;49.404;11.034;2023-08-08T09:18:13;4.18;;;1.10;;
75626;SDS011;67372;49.404;11.034;2023-08-08T09:20:46;1.10;;;0.77;;
75626;SDS011;67372;49.404;11.034;2023-08-08T09:23:13;1.77;;;0.88;;
75626;SDS011;67372;49.404;11.034;2023-08-08T09:25:40;2.47;;;0.90;;
75626;SDS011;67372;49.404;11.034;2023-08-08T09:28:07;1.90;;;1.10;;
75626;SDS011;67372;49.404;11.034;2023-08-08T09:30:35;1.00;;;0.85;;
75626;SDS011;67372;49.404;11.034;2023-08-08T09:33:01;1.80;;;0.63;;
75626;SDS011;67372;49.404;11.034;2023-08-08T09:35:28;1.60;;;0.80;;
75626;SDS011;67372;49.404;11.034;2023-08-08T09:37:55;1.02;;;0.90;;
75626;SDS011;67372;49.404;11.034;2023-08-08T09:40:22;1.90;;;0.90;;
75626;SDS011;67372;49.404;11.034;2023-08-08T09:45:17;1.95;;;0.85;;
75626;SDS011;67372;49.404;11.034;2023-08-08T09:47:43;1.88;;;0.95;;
75626;SDS011;67372;49.404;11.034;2023-08-08T09:50:10;1.23;;;0.75;;
75626;SDS011;67372;49.404;11.034;2023-08-08T09:52:37;1.25;;;0.90;;
75626;SDS011;67372;49.404;11.034;2023-08-08T09:55:03;2.05;;;1.10;;
75626;SDS011;67372;49.404;11.034;2023-08-08T09:57:31;1.67;;;0.75;;
75626;SDS011;67372;49.404;11.034;2023-08-08T09:59:58;2.70;;;1.00;;
75626;SDS011;67372;49.404;11.034;2023-08-08T10:02:25;2.92;;;0.90;;
75626;SDS011;67372;49.404;11.034;2023-08-08T10:04:52;1.45;;;0.90;;
75626;SDS011;67372;49.404;11.034;2023-08-08T10:07:19;2.80;;;1.90;;
75626;SDS011;67372;49.404;11.034;2023-08-08T10:09:45;1.05;;;0.75;;
75626;SDS011;67372;49.404;11.034;2023-08-08T10:12:12;2.88;;;0.90;;
75626;SDS011;67372;49.404;11.034;2023-08-08T10:14:41;1.75;;;0.90;;
75626;SDS011;67372;49.404;11.034;2023-08-08T10:17:08;2.28;;;0.88;;
75626;SDS011;67372;49.404;11.034;2023-08-08T10:19:39;1.85;;;0.90;;
75626;SDS011;67372;49.404;11.034;2023-08-08T10:22:06;1.88;;;0.95;;
75626;SDS011;67372;49.404;11.034;2023-08-08T10:24:34;0.90;;;0.80;;
75626;SDS011;67372;49.404;11.034;2023-08-08T10:27:02;0.90;;;0.75;;
75626;SDS011;67372;49.404;11.034;2023-08-08T10:29:30;1.75;;;0.85;;
75626;SDS011;67372;49.404;11.034;2023-08-08T10:32:00;2.60;;;0.88;;
75626;SDS011;67372;49.404;11.034;2023-08-08T10:34:40;1.20;;;0.82;;
75626;SDS011;67372;49.404;11.034;2023-08-08T10:37:09;1.73;;;0.90;;
75626;SDS011;67372;49.404;11.034;2023-08-08T10:39:36;2.85;;;1.00;;
75626;SDS011;67372;49.404;11.034;2023-08-08T10:42:03;1.95;;;0.90;;
75626;SDS011;67372;49.404;11.034;2023-08-08T10:44:30;1.27;;;0.80;;
75626;SDS011;67372;49.404;11.034;2023-08-08T10:46:57;2.60;;;1.35;;
75626;SDS011;67372;49.404;11.034;2023-08-08T10:49:26;2.15;;;0.90;;
75626;SDS011;67372;49.404;11.034;2023-08-08T10:51:52;1.20;;;0.93;;
75626;SDS011;67372;49.404;11.034;2023-08-08T10:54:19;3.40;;;1.02;;
75626;SDS011;67372;49.404;11.034;2023-08-08T10:56:50;1.08;;;0.80;;
75626;SDS011;67372;49.404;11.034;2023-08-08T10:59:35;0.88;;;0.73;;
75626;SDS011;67372;49.404;11.034;2023-08-08T11:02:03;2.42;;;0.90;;
75626;SDS011;67372;49.404;11.034;2023-08-08T11:04:30;1.13;;;0.88;;
75626;SDS011;67372;49.404;11.034;2023-08-08T11:06:56;1.77;;;0.90;;
75626;SDS011;67372;49.404;11.034;2023-08-08T11:09:23;1.45;;;0.88;;
75626;SDS011;67372;49.404;11.034;2023-08-08T11:11:50;1.25;;;0.77;;
75626;SDS011;67372;49.404;11.034;2023-08-08T11:14:17;1.40;;;1.00;;
75626;SDS011;67372;49.404;11.034;2023-08-08T11:16:45;1.77;;;0.93;;
75626;SDS011;67372;49.404;11.034;2023-08-08T11:19:13;1.50;;;0.93;;
75626;SDS011;67372;49.404;11.034;2023-08-08T11:21:42;1.98;;;0.88;;
75626;SDS011;67372;49.404;11.034;2023-08-08T11:24:09;2.55;;;1.00;;
75626;SDS011;67372;49.404;11.034;2023-08-08T11:26:39;1.13;;;0.63;;
75626;SDS011;67372;49.404;11.034;2023-08-08T11:29:06;4.70;;;2.17;;
75626;SDS011;67372;49.404;11.034;2023-08-08T11:31:33;1.75;;;0.90;;
75626;SDS011;67372;49.404;11.034;2023-08-08T11:34:01;1.15;;;0.90;;
75626;SDS011;67372;49.404;11.034;2023-08-08T11:36:31;1.58;;;0.90;;
75626;SDS011;67372;49.404;11.034;2023-08-08T11:41:30;1.23;;;0.85;;
75626;SDS011;67372;49.404;11.034;2023-08-08T11:43:57;1.30;;;0.90;;
75626;SDS011;67372;49.404;11.034;2023-08-08T11:48:51;1.08;;;0.77;;
75626;SDS011;67372;49.404;11.034;2023-08-08T11:51:18;2.28;;;0.98;;
75626;SDS011;67372;49.404;11.034;2023-08-08T11:53:50;1.58;;;1.00;;
75626;SDS011;67372;49.404;11.034;2023-08-08T11:56:20;1.98;;;1.00;;
75626;SDS011;67372;49.404;11.034;2023-08-08T11:58:50;1.77;;;0.90;;
75626;SDS011;67372;49.404;11.034;2023-08-08T12:01:24;1.92;;;0.80;;
75626;SDS011;67372;49.404;11.034;2023-08-08T12:03:52;1.27;;;0.95;;
75626;SDS011;67372;49.404;11.034;2023-08-08T12:06:19;1.17;;;0.93;;
75626;SDS011;67372;49.404;11.034;2023-08-08T12:11:13;1.33;;;1.20;;
75626;SDS011;67372;49.404;11.034;2023-08-08T12:13:42;3.22;;;1.20;;
75626;SDS011;67372;49.404;11.034;2023-08-08T12:16:10;1.98;;;1.00;;
75626;SDS011;67372;49.404;11.034;2023-08-08T12:18:43;1.58;;;1.10;;
75626;SDS011;67372;49.404;11.034;2023-08-08T12:21:10;1.45;;;1.00;;
75626;SDS011;67372;49.404;11.034;2023-08-08T12:23:36;3.42;;;1.10;;
75626;SDS011;67372;49.404;11.034;2023-08-08T12:26:03;1.67;;;1.15;;
75626;SDS011;67372;49.404;11.034;2023-08-08T12:28:31;1.33;;;0.82;;
75626;SDS011;67372;49.404;11.034;2023-08-08T12:30:58;2.03;;;1.05;;
75626;SDS011;67372;49.404;11.034;2023-08-08T12:33:25;1.45;;;0.93;;
75626;SDS011;67372;49.404;11.034;2023-08-08T12:35:51;1.50;;;0.90;;
75626;SDS011;67372;49.404;11.034;2023-08-08T12:38:17;2.42;;;1.20;;
75626;SDS011;67372;49.404;11.034;2023-08-08T12:40:44;2.38;;;1.00;;
75626;SDS011;67372;49.404;11.034;2023-08-08T12:43:10;3.28;;;1.17;;
75626;SDS011;67372;49.404;11.034;2023-08-08T12:45:37;1.45;;;0.90;;
75626;SDS011;67372;49.404;11.034;2023-08-08T12:48:03;2.35;;;0.88;;
75626;SDS011;67372;49.404;11.034;2023-08-08T12:50:30;3.50;;;1.20;;
75626;SDS011;67372;49.404;11.034;2023-08-08T12:52:56;2.67;;;0.90;;
75626;SDS011;67372;49.404;11.034;2023-08-08T12:55:23;1.70;;;1.00;;
75626;SDS011;67372;49.404;11.034;2023-08-08T12:57:49;1.60;;;0.90;;
75626;SDS011;67372;49.404;11.034;2023-08-08T13:00:16;2.97;;;1.00;;
75626;SDS011;67372;49.404;11.034;2023-08-08T13:02:43;2.05;;;1.00;;
75626;SDS011;67372;49.404;11.034;2023-08-08T13:05:09;2.00;;;1.02;;
75626;SDS011;67372;49.404;11.034;2023-08-08T13:07:36;1.85;;;1.05;;
75626;SDS011;67372;49.404;11.034;2023-08-08T13:10:02;2.83;;;1.02;;
75626;SDS011;67372;49.404;11.034;2023-08-08T13:12:29;1.23;;;1.00;;
75626;SDS011;67372;49.404;11.034;2023-08-08T13:14:55;2.00;;;0.93;;
75626;SDS011;67372;49.404;11.034;2023-08-08T13:17:22;1.40;;;0.90;;
75626;SDS011;67372;49.404;11.034;2023-08-08T13:19:48;1.52;;;0.90;;
75626;SDS011;67372;49.404;11.034;2023-08-08T13:22:14;1.70;;;1.08;;
75626;SDS011;67372;49.404;11.034;2023-08-08T13:24:41;1.27;;;1.00;;
75626;SDS011;67372;49.404;11.034;2023-08-08T13:27:07;1.45;;;1.10;;
75626;SDS011;67372;49.404;11.034;2023-08-08T13:29:34;2.53;;;1.05;;
75626;SDS011;67372;49.404;11.034;2023-08-08T13:32:00;1.77;;;1.00;;
75626;SDS011;67372;49.404;11.034;2023-08-08T13:34:27;2.50;;;1.00;;
75626;SDS011;67372;49.404;11.034;2023-08-08T13:36:53;1.30;;;0.98;;
75626;SDS011;67372;49.404;11.034;2023-08-08T13:39:19;2.28;;;1.00;;
75626;SDS011;67372;49.404;11.034;2023-08-08T13:41:46;1.92;;;1.10;;
75626;SDS011;67372;49.404;11.034;2023-08-08T13:44:12;1.73;;;1.00;;
75626;SDS011;67372;49.404;11.034;2023-08-08T13:46:38;2.13;;;1.10;;
75626;SDS011;67372;49.404;11.034;2023-08-08T13:49:05;1.17;;;0.90;;
75626;SDS011;67372;49.404;11.034;2023-08-08T13:51:31;2.17;;;1.35;;
75626;SDS011;67372;49.404;11.034;2023-08-08T13:53:58;1.95;;;0.93;;
75626;SDS011;67372;49.404;11.034;2023-08-08T13:56:24;1.77;;;1.08;;
75626;SDS011;67372;49.404;11.034;2023-08-08T13:58:50;1.50;;;1.17;;
75626;SDS011;67372;49.404;11.034;2023-08-08T14:01:17;1.73;;;0.90;;
75626;SDS011;67372;49.404;11.034;2023-08-08T14:03:43;1.33;;;1.02;;
75626;SDS011;67372;49.404;11.034;2023-08-08T14:06:10;4.10;;;0.90;;
75626;SDS011;67372;49.404;11.034;2023-08-08T14:08:36;2.45;;;1.17;;
75626;SDS011;67372;49.404;11.034;2023-08-08T14:11:03;1.80;;;1.20;;
75626;SDS011;67372;49.404;11.034;2023-08-08T14:13:29;1.75;;;1.05;;
75626;SDS011;67372;49.404;11.034;2023-08-08T14:15:56;2.13;;;1.10;;
75626;SDS011;67372;49.404;11.034;2023-08-08T14:18:22;2.17;;;1.02;;
75626;SDS011;67372;49.404;11.034;2023-08-08T14:20:49;2.55;;;0.90;;
75626;SDS011;67372;49.404;11.034;2023-08-08T14:23:15;2.17;;;1.00;;
75626;SDS011;67372;49.404;11.034;2023-08-08T14:25:42;2.22;;;1.00;;
75626;SDS011;67372;49.404;11.034;2023-08-08T14:28:08;1.17;;;0.90;;
75626;SDS011;67372;49.404;11.034;2023-08-08T14:30:34;2.15;;;1.05;;
75626;SDS011;67372;49.404;11.034;2023-08-08T14:33:01;1.65;;;1.30;;
75626;SDS011;67372;49.404;11.034;2023-08-08T14:35:27;1.77;;;1.10;;
75626;SDS011;67372;49.404;11.034;2023-08-08T14:37:54;1.70;;;0.93;;
75626;SDS011;67372;49.404;11.034;2023-08-08T14:40:20;2.75;;;1.20;;
75626;SDS011;67372;49.404;11.034;2023-08-08T14:42:47;2.00;;;1.20;;